sensor_id;sensor_type;location;lat;lon;timestamp;P1;durP1;ratioP1;P2;durP2;ratioP2
45762;SDS011;37512;52.408;13.356;2022-09-09T00:02:21;14.68;;;7.45;;
45762;SDS011;37512;52.408;13.356;2022-09-09T00:06:29;12.20;;;7.38;;
45762;SDS011;37512;52.408;13.356;2022-09-09T00:10:36;10.30;;;7.43;;
45762;SDS011;37512;52.408;13.356;2022-09-09T00:14:54;9.50;;;7.53;;
45762;SDS011;37512;52.408;13.356;2022-09-09T00:27:50;8.13;;;7.15;;
45762;SDS011;37512;52.408;13.356;2022-09-09T00:31:57;8.63;;;7.10;;
45762;SDS011;37512;52.408;13.356;2022-09-09T00:36:07;7.53;;;6.10;;
45762;SDS011;37512;52.408;13.356;2022-09-09T00:40:34;8.90;;;6.80;;
45762;SDS011;37512;52.408;13.356;2022-09-09T00:44:38;9.57;;;7.50;;
45762;SDS011;37512;52.408;13.356;2022-09-09T00:53:15;9.55;;;7.28;;
45762;SDS011;37512;52.408;13.356;2022-09-09T00:57:27;8.18;;;7.25;;
45762;SDS011;37512;52.408;13.356;2022-09-09T01:01:30;7.85;;;7.05;;
45762;SDS011;37512;52.408;13.356;2022-09-09T01:09:38;8.63;;;6.32;;
45762;SDS011;37512;52.408;13.356;2022-09-09T01:13:55;9.60;;;7.90;;
45762;SDS011;37512;52.408;13.356;2022-09-09T01:18:13;10.02;;;7.85;;
45762;SDS011;37512;52.408;13.356;2022-09-09T01:26:30;11.18;;;8.07;;
45762;SDS011;37512;52.408;13.356;2022-09-09T01:30:38;8.75;;;6.93;;
45762;SDS011;37512;52.408;13.356;2022-09-09T01:34:41;10.38;;;7.82;;
45762;SDS011;37512;52.408;13.356;2022-09-09T01:38:43;10.70;;;7.60;;
45762;SDS011;37512;52.408;13.356;2022-09-09T01:42:44;9.65;;;7.07;;
45762;SDS011;37512;52.408;13.356;2022-09-09T01:46:46;9.05;;;6.82;;
45762;SDS011;37512;52.408;13.356;2022-09-09T01:50:47;10.20;;;6.68;;
45762;SDS011;37512;52.408;13.356;2022-09-09T01:54:49;10.07;;;7.40;;
45762;SDS011;37512;52.408;13.356;2022-09-09T02:03:29;8.00;;;6.68;;
45762;SDS011;37512;52.408;13.356;2022-09-09T02:07:38;13.20;;;6.73;;
45762;SDS011;37512;52.408;13.356;2022-09-09T02:11:40;8.63;;;7.00;;
45762;SDS011;37512;52.408;13.356;2022-09-09T02:15:53;10.43;;;8.00;;
45762;SDS011;37512;52.408;13.356;2022-09-09T02:20:05;9.13;;;6.50;;
45762;SDS011;37512;52.408;13.356;2022-09-09T02:24:09;9.98;;;7.13;;
45762;SDS011;37512;52.408;13.356;2022-09-09T02:28:14;9.63;;;7.32;;
45762;SDS011;37512;52.408;13.356;2022-09-09T02:32:19;11.10;;;7.45;;
45762;SDS011;37512;52.408;13.356;2022-09-09T02:36:24;7.40;;;6.47;;
45762;SDS011;37512;52.408;13.356;2022-09-09T02:40:28;12.55;;;7.47;;
45762;SDS011;37512;52.408;13.356;2022-09-09T02:44:29;9.25;;;7.15;;
45762;SDS011;37512;52.408;13.356;2022-09-09T02:48:44;8.75;;;7.10;;
45762;SDS011;37512;52.408;13.356;2022-09-09T02:53:01;9.15;;;7.00;;
45762;SDS011;37512;52.408;13.356;2022-09-09T02:57:12;10.13;;;7.10;;
45762;SDS011;37512;52.408;13.356;2022-09-09T03:01:20;10.35;;;6.90;;
45762;SDS011;37512;52.408;13.356;2022-09-09T03:05:22;9.07;;;7.20;;
45762;SDS011;37512;52.408;13.356;2022-09-09T03:09:24;9.07;;;6.65;;
45762;SDS011;37512;52.408;13.356;2022-09-09T03:13:27;8.57;;;6.38;;
45762;SDS011;37512;52.408;13.356;2022-09-09T03:17:28;10.30;;;7.00;;
45762;SDS011;37512;52.408;13.356;2022-09-09T03:21:29;9.80;;;7.63;;
45762;SDS011;37512;52.408;13.356;2022-09-09T03:25:31;9.70;;;7.13;;
45762;SDS011;37512;52.408;13.356;2022-09-09T03:29:33;8.88;;;7.00;;
45762;SDS011;37512;52.408;13.356;2022-09-09T03:33:35;9.75;;;6.80;;
45762;SDS011;37512;52.408;13.356;2022-09-09T03:37:39;11.50;;;6.82;;
45762;SDS011;37512;52.408;13.356;2022-09-09T03:41:41;11.80;;;7.70;;
45762;SDS011;37512;52.408;13.356;2022-09-09T03:45:45;8.70;;;6.95;;
45762;SDS011;37512;52.408;13.356;2022-09-09T03:49:48;7.53;;;6.72;;
45762;SDS011;37512;52.408;13.356;2022-09-09T03:53:50;8.95;;;7.32;;
45762;SDS011;37512;52.408;13.356;2022-09-09T03:57:51;7.30;;;6.47;;
45762;SDS011;37512;52.408;13.356;2022-09-09T04:01:53;8.00;;;6.53;;
45762;SDS011;37512;52.408;13.356;2022-09-09T04:05:55;7.68;;;6.72;;
45762;SDS011;37512;52.408;13.356;2022-09-09T04:09:58;9.63;;;6.60;;
45762;SDS011;37512;52.408;13.356;2022-09-09T04:14:00;7.82;;;6.57;;
45762;SDS011;37512;52.408;13.356;2022-09-09T04:18:02;9.18;;;6.68;;
45762;SDS011;37512;52.408;13.356;2022-09-09T04:22:03;13.55;;;6.78;;
45762;SDS011;37512;52.408;13.356;2022-09-09T04:26:05;8.45;;;6.40;;
45762;SDS011;37512;52.408;13.356;2022-09-09T04:30:07;7.40;;;6.45;;
45762;SDS011;37512;52.408;13.356;2022-09-09T04:34:09;10.60;;;6.88;;
45762;SDS011;37512;52.408;13.356;2022-09-09T04:38:10;8.18;;;6.00;;
45762;SDS011;37512;52.408;13.356;2022-09-09T04:42:12;8.45;;;5.63;;
45762;SDS011;37512;52.408;13.356;2022-09-09T04:46:13;10.75;;;5.88;;
45762;SDS011;37512;52.408;13.356;2022-09-09T04:50:16;6.85;;;5.80;;
45762;SDS011;37512;52.408;13.356;2022-09-09T04:54:17;7.93;;;5.35;;
45762;SDS011;37512;52.408;13.356;2022-09-09T04:58:19;6.63;;;5.88;;
45762;SDS011;37512;52.408;13.356;2022-09-09T05:02:22;9.18;;;5.65;;
45762;SDS011;37512;52.408;13.356;2022-09-09T05:06:28;7.63;;;5.63;;
45762;SDS011;37512;52.408;13.356;2022-09-09T05:10:33;7.30;;;5.30;;
45762;SDS011;37512;52.408;13.356;2022-09-09T05:14:35;6.45;;;4.95;;
45762;SDS011;37512;52.408;13.356;2022-09-09T05:18:41;9.82;;;5.20;;
45762;SDS011;37512;52.408;13.356;2022-09-09T05:22:47;6.00;;;5.03;;
45762;SDS011;37512;52.408;13.356;2022-09-09T05:26:48;11.55;;;5.20;;
45762;SDS011;37512;52.408;13.356;2022-09-09T05:30:57;5.63;;;4.32;;
45762;SDS011;37512;52.408;13.356;2022-09-09T05:35:02;8.38;;;4.97;;
45762;SDS011;37512;52.408;13.356;2022-09-09T05:39:04;5.93;;;4.57;;
45762;SDS011;37512;52.408;13.356;2022-09-09T05:43:05;7.43;;;4.10;;
45762;SDS011;37512;52.408;13.356;2022-09-09T05:47:06;4.07;;;3.35;;
45762;SDS011;37512;52.408;13.356;2022-09-09T05:51:10;6.80;;;3.83;;
45762;SDS011;37512;52.408;13.356;2022-09-09T05:55:13;6.82;;;4.00;;
45762;SDS011;37512;52.408;13.356;2022-09-09T05:59:15;8.52;;;3.63;;
45762;SDS011;37512;52.408;13.356;2022-09-09T06:03:17;5.68;;;3.17;;
45762;SDS011;37512;52.408;13.356;2022-09-09T06:07:18;4.57;;;3.63;;
45762;SDS011;37512;52.408;13.356;2022-09-09T06:11:25;7.82;;;3.33;;
45762;SDS011;37512;52.408;13.356;2022-09-09T06:15:28;3.90;;;3.17;;
45762;SDS011;37512;52.408;13.356;2022-09-09T06:19:31;6.30;;;3.85;;
45762;SDS011;37512;52.408;13.356;2022-09-09T06:23:33;5.68;;;3.28;;
45762;SDS011;37512;52.408;13.356;2022-09-09T06:27:36;4.68;;;3.30;;
45762;SDS011;37512;52.408;13.356;2022-09-09T06:31:37;3.35;;;2.97;;
45762;SDS011;37512;52.408;13.356;2022-09-09T06:35:39;5.90;;;3.63;;
45762;SDS011;37512;52.408;13.356;2022-09-09T06:39:40;6.90;;;3.10;;
45762;SDS011;37512;52.408;13.356;2022-09-09T06:43:42;5.30;;;3.40;;
45762;SDS011;37512;52.408;13.356;2022-09-09T06:47:44;5.88;;;3.30;;
45762;SDS011;37512;52.408;13.356;2022-09-09T06:51:45;6.18;;;4.20;;
45762;SDS011;37512;52.408;13.356;2022-09-09T06:55:47;8.40;;;3.13;;
45762;SDS011;37512;52.408;13.356;2022-09-09T06:59:49;6.82;;;3.35;;
45762;SDS011;37512;52.408;13.356;2022-09-09T07:03:51;7.22;;;3.63;;
45762;SDS011;37512;52.408;13.356;2022-09-09T07:07:54;3.75;;;2.70;;
45762;SDS011;37512;52.408;13.356;2022-09-09T07:11:55;4.43;;;2.60;;
45762;SDS011;37512;52.408;13.356;2022-09-09T07:16:04;8.18;;;3.45;;
45762;SDS011;37512;52.408;13.356;2022-09-09T07:20:07;4.80;;;2.78;;
45762;SDS011;37512;52.408;13.356;2022-09-09T07:24:09;5.47;;;2.40;;
45762;SDS011;37512;52.408;13.356;2022-09-09T07:28:11;5.50;;;2.30;;
45762;SDS011;37512;52.408;13.356;2022-09-09T07:32:13;5.18;;;2.25;;
45762;SDS011;37512;52.408;13.356;2022-09-09T07:40:22;3.85;;;2.05;;
45762;SDS011;37512;52.408;13.356;2022-09-09T07:44:24;5.93;;;2.10;;
45762;SDS011;37512;52.408;13.356;2022-09-09T07:48:26;6.70;;;2.72;;
45762;SDS011;37512;52.408;13.356;2022-09-09T07:52:27;6.35;;;2.25;;
45762;SDS011;37512;52.408;13.356;2022-09-09T07:56:29;6.53;;;2.33;;
45762;SDS011;37512;52.408;13.356;2022-09-09T08:00:33;4.75;;;2.08;;
45762;SDS011;37512;52.408;13.356;2022-09-09T08:04:35;4.50;;;3.20;;
45762;SDS011;37512;52.408;13.356;2022-09-09T08:08:36;3.75;;;1.63;;
45762;SDS011;37512;52.408;13.356;2022-09-09T08:12:39;3.92;;;2.15;;
45762;SDS011;37512;52.408;13.356;2022-09-09T08:16:57;4.78;;;2.00;;
45762;SDS011;37512;52.408;13.356;2022-09-09T08:21:04;3.53;;;1.90;;
45762;SDS011;37512;52.408;13.356;2022-09-09T08:25:07;2.75;;;1.65;;
45762;SDS011;37512;52.408;13.356;2022-09-09T08:29:10;2.97;;;1.75;;
45762;SDS011;37512;52.408;13.356;2022-09-09T08:33:12;3.50;;;1.75;;
45762;SDS011;37512;52.408;13.356;2022-09-09T08:37:14;5.88;;;1.98;;
45762;SDS011;37512;52.408;13.356;2022-09-09T08:45:33;6.50;;;2.28;;
45762;SDS011;37512;52.408;13.356;2022-09-09T08:54:13;3.03;;;1.85;;
45762;SDS011;37512;52.408;13.356;2022-09-09T08:58:35;2.92;;;1.83;;
45762;SDS011;37512;52.408;13.356;2022-09-09T09:07:13;3.08;;;1.50;;
45762;SDS011;37512;52.408;13.356;2022-09-09T09:11:38;4.07;;;1.80;;
45762;SDS011;37512;52.408;13.356;2022-09-09T09:15:46;4.10;;;1.80;;
45762;SDS011;37512;52.408;13.356;2022-09-09T09:19:51;3.80;;;1.60;;
45762;SDS011;37512;52.408;13.356;2022-09-09T09:28:12;2.40;;;1.40;;
45762;SDS011;37512;52.408;13.356;2022-09-09T09:32:18;4.93;;;1.55;;
45762;SDS011;37512;52.408;13.356;2022-09-09T09:36:23;3.85;;;1.77;;
45762;SDS011;37512;52.408;13.356;2022-09-09T09:40:33;3.38;;;1.52;;
45762;SDS011;37512;52.408;13.356;2022-09-09T09:44:35;2.90;;;1.30;;
45762;SDS011;37512;52.408;13.356;2022-09-09T09:48:38;5.68;;;2.38;;
45762;SDS011;37512;52.408;13.356;2022-09-09T09:52:39;6.05;;;1.27;;
45762;SDS011;37512;52.408;13.356;2022-09-09T09:56:43;4.20;;;1.45;;
45762;SDS011;37512;52.408;13.356;2022-09-09T10:00:49;2.38;;;1.17;;
45762;SDS011;37512;52.408;13.356;2022-09-09T10:05:02;7.07;;;1.60;;
45762;SDS011;37512;52.408;13.356;2022-09-09T10:09:26;8.30;;;1.52;;
45762;SDS011;37512;52.408;13.356;2022-09-09T10:22:27;5.18;;;1.52;;
45762;SDS011;37512;52.408;13.356;2022-09-09T10:30:48;8.02;;;1.77;;
45762;SDS011;37512;52.408;13.356;2022-09-09T10:35:02;4.32;;;1.55;;
45762;SDS011;37512;52.408;13.356;2022-09-09T10:39:04;3.08;;;1.70;;
45762;SDS011;37512;52.408;13.356;2022-09-09T10:43:30;3.53;;;1.25;;
45762;SDS011;37512;52.408;13.356;2022-09-09T10:56:11;4.15;;;1.15;;
45762;SDS011;37512;52.408;13.356;2022-09-09T11:00:18;2.35;;;1.00;;
45762;SDS011;37512;52.408;13.356;2022-09-09T11:05:05;3.40;;;1.10;;
45762;SDS011;37512;52.408;13.356;2022-09-09T11:08:53;2.00;;;0.65;;
45762;SDS011;37512;52.408;13.356;2022-09-09T11:12:59;3.47;;;1.20;;
45762;SDS011;37512;52.408;13.356;2022-09-09T11:17:21;3.47;;;1.08;;
45762;SDS011;37512;52.408;13.356;2022-09-09T11:21:33;2.03;;;0.90;;
45762;SDS011;37512;52.408;13.356;2022-09-09T11:25:42;2.15;;;1.00;;
45762;SDS011;37512;52.408;13.356;2022-09-09T11:38:51;3.10;;;1.30;;
45762;SDS011;37512;52.408;13.356;2022-09-09T11:43:01;1.85;;;0.93;;
45762;SDS011;37512;52.408;13.356;2022-09-09T11:47:14;4.55;;;1.30;;
45762;SDS011;37512;52.408;13.356;2022-09-09T11:55:26;3.63;;;0.98;;
45762;SDS011;37512;52.408;13.356;2022-09-09T11:59:34;3.33;;;1.10;;
45762;SDS011;37512;52.408;13.356;2022-09-09T12:07:50;2.75;;;1.33;;
45762;SDS011;37512;52.408;13.356;2022-09-09T12:12:04;1.95;;;0.90;;
45762;SDS011;37512;52.408;13.356;2022-09-09T12:16:28;1.35;;;0.80;;
45762;SDS011;37512;52.408;13.356;2022-09-09T12:20:38;2.30;;;0.60;;
45762;SDS011;37512;52.408;13.356;2022-09-09T12:25:12;2.28;;;1.00;;
45762;SDS011;37512;52.408;13.356;2022-09-09T12:29:42;5.00;;;1.02;;
45762;SDS011;37512;52.408;13.356;2022-09-09T12:33:53;3.85;;;1.48;;
45762;SDS011;37512;52.408;13.356;2022-09-09T12:37:56;2.83;;;0.80;;
45762;SDS011;37512;52.408;13.356;2022-09-09T12:42:01;3.10;;;1.30;;
45762;SDS011;37512;52.408;13.356;2022-09-09T12:46:07;4.35;;;1.52;;
45762;SDS011;37512;52.408;13.356;2022-09-09T12:50:26;1.90;;;0.88;;
45762;SDS011;37512;52.408;13.356;2022-09-09T12:54:30;5.85;;;2.00;;
45762;SDS011;37512;52.408;13.356;2022-09-09T12:58:31;3.38;;;1.25;;
45762;SDS011;37512;52.408;13.356;2022-09-09T13:02:34;3.35;;;1.00;;
45762;SDS011;37512;52.408;13.356;2022-09-09T13:06:35;4.88;;;1.02;;
45762;SDS011;37512;52.408;13.356;2022-09-09T13:10:38;4.43;;;1.17;;
45762;SDS011;37512;52.408;13.356;2022-09-09T13:14:55;2.03;;;0.80;;
45762;SDS011;37512;52.408;13.356;2022-09-09T13:19:16;2.53;;;0.80;;
45762;SDS011;37512;52.408;13.356;2022-09-09T13:23:18;2.20;;;1.00;;
45762;SDS011;37512;52.408;13.356;2022-09-09T13:31:36;3.72;;;1.05;;
45762;SDS011;37512;52.408;13.356;2022-09-09T13:39:50;2.30;;;0.90;;
45762;SDS011;37512;52.408;13.356;2022-09-09T13:43:54;1.63;;;0.82;;
45762;SDS011;37512;52.408;13.356;2022-09-09T13:47:56;4.10;;;0.93;;
45762;SDS011;37512;52.408;13.356;2022-09-09T13:52:05;4.72;;;1.02;;
45762;SDS011;37512;52.408;13.356;2022-09-09T13:56:10;3.03;;;1.23;;
45762;SDS011;37512;52.408;13.356;2022-09-09T14:00:12;2.05;;;1.00;;
45762;SDS011;37512;52.408;13.356;2022-09-09T14:04:14;5.45;;;1.02;;
45762;SDS011;37512;52.408;13.356;2022-09-09T14:08:21;3.38;;;0.98;;
45762;SDS011;37512;52.408;13.356;2022-09-09T14:12:25;1.17;;;0.90;;
45762;SDS011;37512;52.408;13.356;2022-09-09T14:16:26;3.00;;;0.63;;
45762;SDS011;37512;52.408;13.356;2022-09-09T14:20:28;3.28;;;1.10;;
45762;SDS011;37512;52.408;13.356;2022-09-09T14:24:30;3.17;;;0.95;;
45762;SDS011;37512;52.408;13.356;2022-09-09T14:28:32;8.48;;;1.15;;
45762;SDS011;37512;52.408;13.356;2022-09-09T14:32:54;3.03;;;0.93;;
45762;SDS011;37512;52.408;13.356;2022-09-09T14:36:55;2.10;;;0.60;;
45762;SDS011;37512;52.408;13.356;2022-09-09T14:40:57;1.85;;;0.60;;
45762;SDS011;37512;52.408;13.356;2022-09-09T14:44:59;2.15;;;0.80;;
45762;SDS011;37512;52.408;13.356;2022-09-09T14:49:00;3.00;;;1.10;;
45762;SDS011;37512;52.408;13.356;2022-09-09T14:53:02;3.65;;;1.10;;
45762;SDS011;37512;52.408;13.356;2022-09-09T14:57:03;2.65;;;0.70;;
45762;SDS011;37512;52.408;13.356;2022-09-09T15:01:05;1.20;;;0.70;;
45762;SDS011;37512;52.408;13.356;2022-09-09T15:05:15;1.85;;;0.80;;
45762;SDS011;37512;52.408;13.356;2022-09-09T15:09:18;1.55;;;0.52;;
45762;SDS011;37512;52.408;13.356;2022-09-09T15:13:19;1.02;;;0.70;;
45762;SDS011;37512;52.408;13.356;2022-09-09T15:17:21;2.72;;;0.80;;
45762;SDS011;37512;52.408;13.356;2022-09-09T15:21:25;3.58;;;0.93;;
45762;SDS011;37512;52.408;13.356;2022-09-09T15:25:30;2.77;;;0.70;;
45762;SDS011;37512;52.408;13.356;2022-09-09T15:29:33;1.55;;;0.90;;
45762;SDS011;37512;52.408;13.356;2022-09-09T15:33:34;2.20;;;0.80;;
45762;SDS011;37512;52.408;13.356;2022-09-09T15:37:38;3.53;;;0.93;;
45762;SDS011;37512;52.408;13.356;2022-09-09T15:41:39;2.78;;;0.95;;
45762;SDS011;37512;52.408;13.356;2022-09-09T15:45:41;2.38;;;1.00;;
45762;SDS011;37512;52.408;13.356;2022-09-09T15:49:42;1.42;;;0.82;;
45762;SDS011;37512;52.408;13.356;2022-09-09T15:53:44;2.70;;;0.80;;
45762;SDS011;37512;52.408;13.356;2022-09-09T15:57:46;3.20;;;0.85;;
45762;SDS011;37512;52.408;13.356;2022-09-09T16:01:47;6.70;;;1.42;;
45762;SDS011;37512;52.408;13.356;2022-09-09T16:05:51;4.93;;;1.40;;
45762;SDS011;37512;52.408;13.356;2022-09-09T16:09:52;2.40;;;1.40;;
45762;SDS011;37512;52.408;13.356;2022-09-09T16:13:55;2.10;;;0.93;;
45762;SDS011;37512;52.408;13.356;2022-09-09T16:17:57;3.92;;;1.00;;
45762;SDS011;37512;52.408;13.356;2022-09-09T16:21:59;1.27;;;0.95;;
45762;SDS011;37512;52.408;13.356;2022-09-09T16:26:01;4.00;;;1.00;;
45762;SDS011;37512;52.408;13.356;2022-09-09T16:30:06;1.40;;;0.70;;
45762;SDS011;37512;52.408;13.356;2022-09-09T16:34:08;2.05;;;0.93;;
45762;SDS011;37512;52.408;13.356;2022-09-09T16:38:10;2.13;;;1.20;;
45762;SDS011;37512;52.408;13.356;2022-09-09T16:42:12;2.67;;;1.23;;
45762;SDS011;37512;52.408;13.356;2022-09-09T16:46:17;2.55;;;1.30;;
45762;SDS011;37512;52.408;13.356;2022-09-09T16:50:20;3.45;;;1.20;;
45762;SDS011;37512;52.408;13.356;2022-09-09T16:54:22;6.20;;;1.10;;
45762;SDS011;37512;52.408;13.356;2022-09-09T16:58:24;5.18;;;1.17;;
45762;SDS011;37512;52.408;13.356;2022-09-09T17:02:25;3.13;;;1.33;;
45762;SDS011;37512;52.408;13.356;2022-09-09T17:06:27;3.40;;;1.92;;
45762;SDS011;37512;52.408;13.356;2022-09-09T17:10:30;4.30;;;1.30;;
45762;SDS011;37512;52.408;13.356;2022-09-09T17:14:32;3.15;;;1.23;;
45762;SDS011;37512;52.408;13.356;2022-09-09T17:18:34;5.13;;;1.63;;
45762;SDS011;37512;52.408;13.356;2022-09-09T17:22:36;3.97;;;1.40;;
45762;SDS011;37512;52.408;13.356;2022-09-09T17:26:37;5.03;;;1.80;;
45762;SDS011;37512;52.408;13.356;2022-09-09T17:30:39;4.30;;;1.75;;
45762;SDS011;37512;52.408;13.356;2022-09-09T17:34:40;4.20;;;1.60;;
45762;SDS011;37512;52.408;13.356;2022-09-09T17:38:42;4.15;;;1.90;;
45762;SDS011;37512;52.408;13.356;2022-09-09T17:42:43;5.75;;;1.25;;
45762;SDS011;37512;52.408;13.356;2022-09-09T17:46:45;2.53;;;1.23;;
45762;SDS011;37512;52.408;13.356;2022-09-09T17:50:47;4.03;;;1.20;;
45762;SDS011;37512;52.408;13.356;2022-09-09T17:54:49;5.05;;;1.02;;
45762;SDS011;37512;52.408;13.356;2022-09-09T17:58:50;3.28;;;0.90;;
45762;SDS011;37512;52.408;13.356;2022-09-09T18:02:53;3.03;;;1.20;;
45762;SDS011;37512;52.408;13.356;2022-09-09T18:06:55;1.67;;;1.10;;
45762;SDS011;37512;52.408;13.356;2022-09-09T18:10:59;2.28;;;1.40;;
45762;SDS011;37512;52.408;13.356;2022-09-09T18:15:01;4.93;;;1.20;;
45762;SDS011;37512;52.408;13.356;2022-09-09T18:19:05;3.85;;;1.27;;
45762;SDS011;37512;52.408;13.356;2022-09-09T18:23:09;1.85;;;1.05;;
45762;SDS011;37512;52.408;13.356;2022-09-09T18:27:11;2.03;;;1.20;;
45762;SDS011;37512;52.408;13.356;2022-09-09T18:31:13;1.95;;;0.90;;
45762;SDS011;37512;52.408;13.356;2022-09-09T18:35:17;4.45;;;1.98;;
45762;SDS011;37512;52.408;13.356;2022-09-09T18:39:19;4.00;;;1.10;;
45762;SDS011;37512;52.408;13.356;2022-09-09T18:43:21;1.90;;;0.98;;
45762;SDS011;37512;52.408;13.356;2022-09-09T18:47:23;3.78;;;1.20;;
45762;SDS011;37512;52.408;13.356;2022-09-09T18:51:26;5.05;;;1.45;;
45762;SDS011;37512;52.408;13.356;2022-09-09T18:55:29;2.20;;;1.10;;
45762;SDS011;37512;52.408;13.356;2022-09-09T18:59:32;2.53;;;1.60;;
45762;SDS011;37512;52.408;13.356;2022-09-09T19:03:34;2.88;;;1.40;;
45762;SDS011;37512;52.408;13.356;2022-09-09T19:07:36;3.25;;;1.30;;
45762;SDS011;37512;52.408;13.356;2022-09-09T19:11:39;2.08;;;1.13;;
45762;SDS011;37512;52.408;13.356;2022-09-09T19:15:42;3.80;;;1.65;;
45762;SDS011;37512;52.408;13.356;2022-09-09T19:19:43;5.47;;;2.25;;
45762;SDS011;37512;52.408;13.356;2022-09-09T19:23:45;3.42;;;1.50;;
45762;SDS011;37512;52.408;13.356;2022-09-09T19:27:48;3.65;;;1.85;;
45762;SDS011;37512;52.408;13.356;2022-09-09T19:31:50;3.15;;;1.10;;
45762;SDS011;37512;52.408;13.356;2022-09-09T19:36:14;3.88;;;1.58;;
45762;SDS011;37512;52.408;13.356;2022-09-09T19:40:18;2.92;;;1.38;;
45762;SDS011;37512;52.408;13.356;2022-09-09T19:44:22;2.35;;;1.20;;
45762;SDS011;37512;52.408;13.356;2022-09-09T19:48:24;2.83;;;1.65;;
45762;SDS011;37512;52.408;13.356;2022-09-09T19:52:27;2.10;;;1.20;;
45762;SDS011;37512;52.408;13.356;2022-09-09T19:56:28;4.32;;;1.33;;
45762;SDS011;37512;52.408;13.356;2022-09-09T20:00:31;2.88;;;1.08;;
45762;SDS011;37512;52.408;13.356;2022-09-09T20:04:34;3.60;;;1.30;;
45762;SDS011;37512;52.408;13.356;2022-09-09T20:08:35;5.07;;;1.38;;
45762;SDS011;37512;52.408;13.356;2022-09-09T20:12:38;3.22;;;1.42;;
45762;SDS011;37512;52.408;13.356;2022-09-09T20:16:40;4.05;;;1.40;;
45762;SDS011;37512;52.408;13.356;2022-09-09T20:20:42;3.30;;;1.15;;
45762;SDS011;37512;52.408;13.356;2022-09-09T20:24:43;1.77;;;1.10;;
45762;SDS011;37512;52.408;13.356;2022-09-09T20:28:45;3.55;;;1.90;;
45762;SDS011;37512;52.408;13.356;2022-09-09T20:32:50;3.72;;;1.50;;
45762;SDS011;37512;52.408;13.356;2022-09-09T20:36:51;3.08;;;1.42;;
45762;SDS011;37512;52.408;13.356;2022-09-09T20:40:54;3.58;;;1.60;;
45762;SDS011;37512;52.408;13.356;2022-09-09T20:44:56;7.53;;;1.58;;
45762;SDS011;37512;52.408;13.356;2022-09-09T20:48:58;3.55;;;1.38;;
45762;SDS011;37512;52.408;13.356;2022-09-09T20:53:03;3.58;;;1.88;;
45762;SDS011;37512;52.408;13.356;2022-09-09T20:57:05;4.25;;;1.45;;
45762;SDS011;37512;52.408;13.356;2022-09-09T21:01:07;10.02;;;1.67;;
45762;SDS011;37512;52.408;13.356;2022-09-09T21:05:14;3.28;;;1.67;;
45762;SDS011;37512;52.408;13.356;2022-09-09T21:09:16;3.50;;;1.58;;
45762;SDS011;37512;52.408;13.356;2022-09-09T21:13:18;1.92;;;1.23;;
45762;SDS011;37512;52.408;13.356;2022-09-09T21:17:20;3.60;;;1.60;;
45762;SDS011;37512;52.408;13.356;2022-09-09T21:21:22;3.63;;;1.38;;
45762;SDS011;37512;52.408;13.356;2022-09-09T21:25:24;2.83;;;1.20;;
45762;SDS011;37512;52.408;13.356;2022-09-09T21:29:26;2.85;;;1.27;;
45762;SDS011;37512;52.408;13.356;2022-09-09T21:33:28;3.42;;;1.20;;
45762;SDS011;37512;52.408;13.356;2022-09-09T21:37:29;3.70;;;1.40;;
45762;SDS011;37512;52.408;13.356;2022-09-09T21:41:31;4.78;;;1.25;;
45762;SDS011;37512;52.408;13.356;2022-09-09T21:45:36;1.65;;;1.20;;
45762;SDS011;37512;52.408;13.356;2022-09-09T21:49:38;2.55;;;1.55;;
45762;SDS011;37512;52.408;13.356;2022-09-09T21:53:40;3.15;;;1.23;;
45762;SDS011;37512;52.408;13.356;2022-09-09T21:57:42;3.35;;;1.50;;
45762;SDS011;37512;52.408;13.356;2022-09-09T22:01:45;4.07;;;1.77;;
45762;SDS011;37512;52.408;13.356;2022-09-09T22:05:48;2.00;;;1.30;;
45762;SDS011;37512;52.408;13.356;2022-09-09T22:09:54;5.32;;;1.50;;
45762;SDS011;37512;52.408;13.356;2022-09-09T22:13:55;4.18;;;1.60;;
45762;SDS011;37512;52.408;13.356;2022-09-09T22:18:00;2.35;;;1.33;;
45762;SDS011;37512;52.408;13.356;2022-09-09T22:22:06;3.30;;;1.10;;
45762;SDS011;37512;52.408;13.356;2022-09-09T22:26:08;3.78;;;1.40;;
45762;SDS011;37512;52.408;13.356;2022-09-09T22:30:10;4.40;;;1.50;;
45762;SDS011;37512;52.408;13.356;2022-09-09T22:34:12;4.10;;;1.48;;
45762;SDS011;37512;52.408;13.356;2022-09-09T22:38:13;2.50;;;1.70;;
45762;SDS011;37512;52.408;13.356;2022-09-09T22:42:14;2.67;;;1.65;;
45762;SDS011;37512;52.408;13.356;2022-09-09T22:46:16;5.03;;;1.67;;
45762;SDS011;37512;52.408;13.356;2022-09-09T22:50:18;4.88;;;1.83;;
45762;SDS011;37512;52.408;13.356;2022-09-09T22:54:20;3.47;;;2.03;;
45762;SDS011;37512;52.408;13.356;2022-09-09T22:58:23;3.10;;;2.08;;
45762;SDS011;37512;52.408;13.356;2022-09-09T23:02:25;3.67;;;1.58;;
45762;SDS011;37512;52.408;13.356;2022-09-09T23:06:27;3.15;;;1.55;;
45762;SDS011;37512;52.408;13.356;2022-09-09T23:10:29;5.03;;;1.40;;
45762;SDS011;37512;52.408;13.356;2022-09-09T23:14:33;4.10;;;2.05;;
45762;SDS011;37512;52.408;13.356;2022-09-09T23:18:35;2.80;;;1.70;;
45762;SDS011;37512;52.408;13.356;2022-09-09T23:22:37;3.97;;;1.60;;
45762;SDS011;37512;52.408;13.356;2022-09-09T23:26:41;4.68;;;1.73;;
45762;SDS011;37512;52.408;13.356;2022-09-09T23:30:44;2.90;;;1.63;;
45762;SDS011;37512;52.408;13.356;2022-09-09T23:34:47;3.30;;;2.03;;
45762;SDS011;37512;52.408;13.356;2022-09-09T23:38:48;3.97;;;1.77;;
45762;SDS011;37512;52.408;13.356;2022-09-09T23:42:52;2.10;;;1.70;;
45762;SDS011;37512;52.408;13.356;2022-09-09T23:46:55;3.05;;;1.92;;
45762;SDS011;37512;52.408;13.356;2022-09-09T23:50:56;2.95;;;2.13;;
45762;SDS011;37512;52.408;13.356;2022-09-09T23:54:59;2.83;;;1.98;;
45762;SDS011;37512;52.408;13.356;2022-09-09T23:59:00;5.07;;;2.47;;
